Yuma, AZ (85364)

10:43 PM MST on June 29, 2015 (GMT -0700)
APRSWXNET | | Change Station
CLOSE
Current Station
Personal Weather Station
Location: Yuma, AZ
Elevation: 125 ft
Nearby Weather Stations

Elev 125 ft 32.72 °N, 114.65 °W | Updated 25 minutes ago

Mostly Cloudy
Mostly Cloudy
93 °F
Feels Like 98 °F
N
3
Wind Variable Wind from South
Gusts 5.0 mph

Today
High -- | Low -- °F
--% Chance of Precip.
Yesterday
High -- | Low -- °F
Precip. -- in
5:33 AM 7:50 PM
Waxing Gibbous, 96% visible
Pressure 29.79 in
Visibility 10.0 miles
Clouds Scattered Clouds 15000 ft
Mostly Cloudy 22000 ft
Heat Index 98 °F
Dew Point 68 °F
Humidity 45%
Rainfall in
Snow Depth Not available.
UV 0 out of 12
Pollen 5.40 out of 12
Air Quality Not available.
Flu Activity Local Activity
METAR KNYL 300457Z 19007KT 10SM SCT150 BKN220 34/19 A2980 RMK AO2 SLP087 T03440194

More Conditions Fewer Conditions

Pressure 29.79 in
Visibility 10.0 miles
Clouds Scattered Clouds 15000 ft
Mostly Cloudy 22000 ft
Heat Index 98 °F
Dew Point 68 °F
Humidity 45%
Rainfall in
Snow Depth Not available.
UV 0 out of 12
Pollen 5.40 out of 12
Air Quality Not available.
Flu Activity Local Activity
METAR KNYL 300457Z 19007KT 10SM SCT150 BKN220 34/19 A2980 RMK AO2 SLP087 T03440194

More Conditions Fewer Conditions

10-Day Weather Forecast

×

Almanac

Astronomy

Jun. 29, 2015 Rise Set
Actual Time
Civil Twilight
Nautical Twilight
Astronomical Twilight
Moon
Length of Visible Light
Length of Day
Tomorrow will be .
, % of the Moon is Illuminated

Today's Extremes

State Highs State Lows

Community

WunderPhotos

Upload Photos

1,833,970 photos uploaded!

WunderBlogs® & News

Nearby

Air Quality

  Air Quality AQ Index Pollutant
Not available.

Snow Depth

Station Depth Elevation

Earthquake Activity

City Distance Mag. Time & Date
Minimum magnitude displayed is 2.5.

Coastal Water Temperatures

Place Temperature

Stations

Nearby Weather Stations

Station Location Temp. Windchill Dew Point Humidity Wind Precip. Elev Updated Type